sensor_id;sensor_type;location;lat;lon;timestamp;pressure;altitude;pressure_sealevel;temperature;humidity
25526;BME280;13424;48.424;11.258;2023-12-04T00:00:18;95760.97;;;-5.25;72.78
25526;BME280;13424;48.424;11.258;2023-12-04T00:02:44;95761.09;;;-5.17;72.34
25526;BME280;13424;48.424;11.258;2023-12-04T00:05:10;95754.81;;;-5.34;72.89
25526;BME280;13424;48.424;11.258;2023-12-04T00:07:36;95764.50;;;-5.16;72.51
25526;BME280;13424;48.424;11.258;2023-12-04T00:10:03;95760.06;;;-4.77;70.34
25526;BME280;13424;48.424;11.258;2023-12-04T00:16:20;95751.69;;;-5.56;69.65
25526;BME280;13424;48.424;11.258;2023-12-04T00:18:46;95749.75;;;-5.25;69.50
25526;BME280;13424;48.424;11.258;2023-12-04T00:21:13;95754.28;;;-5.27;69.18
25526;BME280;13424;48.424;11.258;2023-12-04T00:23:39;95736.19;;;-5.39;69.36
25526;BME280;13424;48.424;11.258;2023-12-04T00:26:05;95742.09;;;-5.75;71.62
25526;BME280;13424;48.424;11.258;2023-12-04T00:28:32;95734.03;;;-5.53;72.44
25526;BME280;13424;48.424;11.258;2023-12-04T00:30:58;95735.53;;;-5.70;73.75
25526;BME280;13424;48.424;11.258;2023-12-04T00:33:24;95727.03;;;-5.62;73.66
25526;BME280;13424;48.424;11.258;2023-12-04T00:36:43;95733.19;;;-5.63;73.58
25526;BME280;13424;48.424;11.258;2023-12-04T00:39:09;95736.34;;;-5.21;72.54
25526;BME280;13424;48.424;11.258;2023-12-04T00:41:35;95736.25;;;-4.92;71.76
25526;BME280;13424;48.424;11.258;2023-12-04T00:44:01;95745.16;;;-4.85;70.60
25526;BME280;13424;48.424;11.258;2023-12-04T00:46:27;95733.50;;;-4.90;69.32
25526;BME280;13424;48.424;11.258;2023-12-04T00:48:53;95732.13;;;-4.85;69.39
25526;BME280;13424;48.424;11.258;2023-12-04T00:51:19;95731.78;;;-4.62;68.59
25526;BME280;13424;48.424;11.258;2023-12-04T00:53:45;95726.28;;;-4.59;67.48
25526;BME280;13424;48.424;11.258;2023-12-04T00:56:11;95728.03;;;-4.87;68.09
25526;BME280;13424;48.424;11.258;2023-12-04T01:02:31;95719.16;;;-4.94;65.68
25526;BME280;13424;48.424;11.258;2023-12-04T01:04:57;95706.81;;;-5.49;65.52
25526;BME280;13424;48.424;11.258;2023-12-04T01:07:23;95715.84;;;-5.53;66.56
25526;BME280;13424;48.424;11.258;2023-12-04T01:09:49;95717.50;;;-5.52;67.88
25526;BME280;13424;48.424;11.258;2023-12-04T01:12:38;95715.53;;;-5.30;67.50
25526;BME280;13424;48.424;11.258;2023-12-04T01:15:04;95711.44;;;-5.43;69.89
25526;BME280;13424;48.424;11.258;2023-12-04T01:17:30;95708.97;;;-5.25;68.91
25526;BME280;13424;48.424;11.258;2023-12-04T01:19:56;95710.50;;;-5.42;68.49
25526;BME280;13424;48.424;11.258;2023-12-04T01:22:23;95706.97;;;-5.60;68.41
25526;BME280;13424;48.424;11.258;2023-12-04T01:24:49;95707.47;;;-5.27;67.53
25526;BME280;13424;48.424;11.258;2023-12-04T01:27:15;95702.84;;;-5.43;68.08
25526;BME280;13424;48.424;11.258;2023-12-04T01:29:41;95704.31;;;-5.31;67.37
25526;BME280;13424;48.424;11.258;2023-12-04T01:32:07;95705.44;;;-5.53;68.01
25526;BME280;13424;48.424;11.258;2023-12-04T01:35:39;95685.22;;;-5.98;69.23
25526;BME280;13424;48.424;11.258;2023-12-04T01:38:05;95678.78;;;-6.23;69.02
25526;BME280;13424;48.424;11.258;2023-12-04T01:40:31;95665.53;;;-6.10;69.14
25526;BME280;13424;48.424;11.258;2023-12-04T01:42:57;95666.63;;;-6.03;68.34
25526;BME280;13424;48.424;11.258;2023-12-04T01:45:23;95655.81;;;-6.27;68.83
25526;BME280;13424;48.424;11.258;2023-12-04T01:47:49;95666.09;;;-6.16;69.59
25526;BME280;13424;48.424;11.258;2023-12-04T01:50:16;95658.25;;;-6.35;69.85
25526;BME280;13424;48.424;11.258;2023-12-04T01:52:42;95656.66;;;-6.77;69.55
25526;BME280;13424;48.424;11.258;2023-12-04T01:55:09;95661.13;;;-7.19;70.25
25526;BME280;13424;48.424;11.258;2023-12-04T01:57:46;95651.28;;;-7.25;70.95
25526;BME280;13424;48.424;11.258;2023-12-04T02:00:13;95642.09;;;-7.60;72.50
25526;BME280;13424;48.424;11.258;2023-12-04T02:02:41;95643.22;;;-7.94;73.79
25526;BME280;13424;48.424;11.258;2023-12-04T02:05:11;95626.38;;;-7.89;74.38
25526;BME280;13424;48.424;11.258;2023-12-04T02:07:41;95625.69;;;-7.70;74.06
25526;BME280;13424;48.424;11.258;2023-12-04T02:10:08;95625.19;;;-7.03;72.42
25526;BME280;13424;48.424;11.258;2023-12-04T02:12:34;95621.16;;;-6.76;71.85
25526;BME280;13424;48.424;11.258;2023-12-04T02:15:01;95617.41;;;-6.53;69.68
25526;BME280;13424;48.424;11.258;2023-12-04T02:17:28;95621.75;;;-6.63;69.11
25526;BME280;13424;48.424;11.258;2023-12-04T02:19:55;95618.56;;;-6.76;70.34
25526;BME280;13424;48.424;11.258;2023-12-04T02:22:21;95618.50;;;-6.95;71.38
25526;BME280;13424;48.424;11.258;2023-12-04T02:24:47;95625.25;;;-6.83;71.66
25526;BME280;13424;48.424;11.258;2023-12-04T02:27:50;95614.72;;;-6.91;71.43
25526;BME280;13424;48.424;11.258;2023-12-04T02:30:22;95611.22;;;-6.71;70.93
25526;BME280;13424;48.424;11.258;2023-12-04T02:32:49;95613.69;;;-6.40;68.09
25526;BME280;13424;48.424;11.258;2023-12-04T02:35:24;95619.03;;;-6.61;68.71
25526;BME280;13424;48.424;11.258;2023-12-04T02:37:53;95618.75;;;-6.49;67.71
25526;BME280;13424;48.424;11.258;2023-12-04T02:40:19;95624.19;;;-6.71;67.67
25526;BME280;13424;48.424;11.258;2023-12-04T02:42:45;95622.78;;;-7.25;68.37
25526;BME280;13424;48.424;11.258;2023-12-04T02:45:12;95620.06;;;-6.83;66.79
25526;BME280;13424;48.424;11.258;2023-12-04T02:47:38;95625.09;;;-7.52;68.91
25526;BME280;13424;48.424;11.258;2023-12-04T02:50:04;95613.13;;;-7.95;68.88
25526;BME280;13424;48.424;11.258;2023-12-04T02:56:19;95615.94;;;-7.56;68.97
25526;BME280;13424;48.424;11.258;2023-12-04T02:58:45;95599.81;;;-7.60;68.96
25526;BME280;13424;48.424;11.258;2023-12-04T03:01:11;95606.25;;;-7.34;68.36
25526;BME280;13424;48.424;11.258;2023-12-04T03:03:37;95597.19;;;-7.39;68.41
25526;BME280;13424;48.424;11.258;2023-12-04T03:06:03;95588.19;;;-7.35;68.05
25526;BME280;13424;48.424;11.258;2023-12-04T03:08:29;95579.88;;;-7.69;69.97
25526;BME280;13424;48.424;11.258;2023-12-04T03:10:56;95575.06;;;-7.43;68.76
25526;BME280;13424;48.424;11.258;2023-12-04T03:13:22;95577.63;;;-7.22;68.07
25526;BME280;13424;48.424;11.258;2023-12-04T03:15:48;95583.75;;;-7.54;68.98
25526;BME280;13424;48.424;11.258;2023-12-04T03:18:14;95571.66;;;-7.44;69.99
25526;BME280;13424;48.424;11.258;2023-12-04T03:24:41;95575.47;;;-7.78;70.10
25526;BME280;13424;48.424;11.258;2023-12-04T03:27:07;95579.59;;;-7.66;69.70
25526;BME280;13424;48.424;11.258;2023-12-04T03:29:33;95580.59;;;-7.27;68.94
25526;BME280;13424;48.424;11.258;2023-12-04T03:31:59;95568.59;;;-7.28;68.89
25526;BME280;13424;48.424;11.258;2023-12-04T03:34:25;95559.78;;;-7.46;69.38
25526;BME280;13424;48.424;11.258;2023-12-04T03:36:51;95556.91;;;-7.53;70.16
25526;BME280;13424;48.424;11.258;2023-12-04T03:39:17;95549.91;;;-7.32;70.11
25526;BME280;13424;48.424;11.258;2023-12-04T03:41:43;95537.06;;;-7.33;70.57
25526;BME280;13424;48.424;11.258;2023-12-04T03:44:10;95540.22;;;-7.29;70.84
25526;BME280;13424;48.424;11.258;2023-12-04T03:46:36;95540.25;;;-7.50;71.91
25526;BME280;13424;48.424;11.258;2023-12-04T03:49:02;95540.06;;;-7.28;72.73
25526;BME280;13424;48.424;11.258;2023-12-04T03:51:29;95534.50;;;-7.64;73.57
25526;BME280;13424;48.424;11.258;2023-12-04T03:54:01;95537.00;;;-7.52;73.57
25526;BME280;13424;48.424;11.258;2023-12-04T03:56:27;95537.66;;;-7.50;73.69
25526;BME280;13424;48.424;11.258;2023-12-04T03:58:53;95540.88;;;-7.68;73.94
25526;BME280;13424;48.424;11.258;2023-12-04T04:01:19;95541.00;;;-7.39;73.06
25526;BME280;13424;48.424;11.258;2023-12-04T04:03:45;95529.03;;;-6.70;70.09
25526;BME280;13424;48.424;11.258;2023-12-04T04:06:11;95531.31;;;-6.87;68.87
25526;BME280;13424;48.424;11.258;2023-12-04T04:08:37;95522.44;;;-6.94;68.13
25526;BME280;13424;48.424;11.258;2023-12-04T04:11:04;95518.44;;;-7.08;67.64
25526;BME280;13424;48.424;11.258;2023-12-04T04:13:30;95516.53;;;-7.06;67.77
25526;BME280;13424;48.424;11.258;2023-12-04T04:15:56;95519.44;;;-7.39;68.67
25526;BME280;13424;48.424;11.258;2023-12-04T04:18:22;95513.28;;;-7.48;69.47
25526;BME280;13424;48.424;11.258;2023-12-04T04:20:48;95496.16;;;-7.70;69.18
25526;BME280;13424;48.424;11.258;2023-12-04T04:23:14;95501.66;;;-7.53;68.95
25526;BME280;13424;48.424;11.258;2023-12-04T04:25:40;95497.16;;;-7.51;69.70
25526;BME280;13424;48.424;11.258;2023-12-04T04:28:06;95503.31;;;-7.52;70.97
25526;BME280;13424;48.424;11.258;2023-12-04T04:30:32;95496.72;;;-7.26;71.31
25526;BME280;13424;48.424;11.258;2023-12-04T04:32:58;95497.03;;;-6.90;70.13
25526;BME280;13424;48.424;11.258;2023-12-04T04:35:24;95497.47;;;-6.95;70.61
25526;BME280;13424;48.424;11.258;2023-12-04T04:37:50;95492.38;;;-7.06;70.98
25526;BME280;13424;48.424;11.258;2023-12-04T04:40:16;95486.22;;;-7.05;71.42
25526;BME280;13424;48.424;11.258;2023-12-04T04:42:43;95491.41;;;-7.05;71.61
25526;BME280;13424;48.424;11.258;2023-12-04T04:45:10;95487.09;;;-6.66;70.28
25526;BME280;13424;48.424;11.258;2023-12-04T04:47:36;95485.47;;;-6.48;70.23
25526;BME280;13424;48.424;11.258;2023-12-04T04:50:02;95484.31;;;-6.16;69.29
25526;BME280;13424;48.424;11.258;2023-12-04T04:52:29;95487.34;;;-6.30;68.87
25526;BME280;13424;48.424;11.258;2023-12-04T04:54:55;95478.59;;;-6.29;68.92
25526;BME280;13424;48.424;11.258;2023-12-04T04:57:21;95474.34;;;-6.40;69.57
25526;BME280;13424;48.424;11.258;2023-12-04T04:59:47;95471.69;;;-6.01;69.02
25526;BME280;13424;48.424;11.258;2023-12-04T05:02:13;95469.69;;;-6.17;68.57
25526;BME280;13424;48.424;11.258;2023-12-04T05:04:39;95475.22;;;-5.93;68.64
25526;BME280;13424;48.424;11.258;2023-12-04T05:07:05;95473.94;;;-5.88;67.53
25526;BME280;13424;48.424;11.258;2023-12-04T05:09:31;95477.75;;;-6.20;65.16
25526;BME280;13424;48.424;11.258;2023-12-04T05:11:57;95476.25;;;-6.32;65.36
25526;BME280;13424;48.424;11.258;2023-12-04T05:18:48;95474.53;;;-6.61;66.38
25526;BME280;13424;48.424;11.258;2023-12-04T05:21:14;95464.69;;;-6.67;66.61
25526;BME280;13424;48.424;11.258;2023-12-04T05:23:41;95467.13;;;-7.14;66.85
25526;BME280;13424;48.424;11.258;2023-12-04T05:26:07;95471.78;;;-6.50;65.59
25526;BME280;13424;48.424;11.258;2023-12-04T05:28:34;95464.25;;;-6.33;64.54
25526;BME280;13424;48.424;11.258;2023-12-04T05:31:00;95463.56;;;-6.35;65.07
25526;BME280;13424;48.424;11.258;2023-12-04T05:33:26;95461.69;;;-6.53;64.86
25526;BME280;13424;48.424;11.258;2023-12-04T05:35:53;95470.41;;;-6.73;65.45
25526;BME280;13424;48.424;11.258;2023-12-04T05:38:19;95476.03;;;-6.68;65.82
25526;BME280;13424;48.424;11.258;2023-12-04T05:40:46;95474.25;;;-6.77;64.61
25526;BME280;13424;48.424;11.258;2023-12-04T05:43:12;95473.16;;;-6.94;66.15
25526;BME280;13424;48.424;11.258;2023-12-04T05:45:39;95467.28;;;-6.67;66.08
25526;BME280;13424;48.424;11.258;2023-12-04T05:48:06;95463.84;;;-6.29;65.17
25526;BME280;13424;48.424;11.258;2023-12-04T05:50:32;95472.28;;;-6.17;64.77
25526;BME280;13424;48.424;11.258;2023-12-04T05:52:58;95477.19;;;-6.14;64.01
25526;BME280;13424;48.424;11.258;2023-12-04T05:55:30;95463.88;;;-6.58;64.37
25526;BME280;13424;48.424;11.258;2023-12-04T05:57:56;95465.38;;;-6.45;63.68
25526;BME280;13424;48.424;11.258;2023-12-04T06:00:22;95455.50;;;-6.32;62.80
25526;BME280;13424;48.424;11.258;2023-12-04T06:02:48;95459.34;;;-6.36;63.80
25526;BME280;13424;48.424;11.258;2023-12-04T06:05:14;95454.69;;;-6.23;63.94
25526;BME280;13424;48.424;11.258;2023-12-04T06:07:41;95453.28;;;-6.08;64.16
25526;BME280;13424;48.424;11.258;2023-12-04T06:10:08;95447.63;;;-6.03;64.17
25526;BME280;13424;48.424;11.258;2023-12-04T06:12:34;95436.81;;;-6.65;63.86
25526;BME280;13424;48.424;11.258;2023-12-04T06:15:00;95435.75;;;-6.82;65.08
25526;BME280;13424;48.424;11.258;2023-12-04T06:21:51;95427.56;;;-6.77;64.84
25526;BME280;13424;48.424;11.258;2023-12-04T06:24:19;95421.94;;;-6.72;65.96
25526;BME280;13424;48.424;11.258;2023-12-04T06:26:46;95416.34;;;-6.68;65.87
25526;BME280;13424;48.424;11.258;2023-12-04T06:29:16;95415.78;;;-6.52;64.57
25526;BME280;13424;48.424;11.258;2023-12-04T06:32:01;95414.72;;;-6.69;65.25
25526;BME280;13424;48.424;11.258;2023-12-04T06:34:27;95411.44;;;-6.90;65.79
25526;BME280;13424;48.424;11.258;2023-12-04T06:36:55;95415.41;;;-7.06;65.63
25526;BME280;13424;48.424;11.258;2023-12-04T06:39:22;95415.00;;;-6.82;65.25
25526;BME280;13424;48.424;11.258;2023-12-04T06:45:37;95400.78;;;-6.68;64.16
25526;BME280;13424;48.424;11.258;2023-12-04T06:48:04;95405.97;;;-6.58;63.77
25526;BME280;13424;48.424;11.258;2023-12-04T06:50:30;95405.41;;;-6.52;63.63
25526;BME280;13424;48.424;11.258;2023-12-04T06:52:56;95411.41;;;-6.52;64.39
25526;BME280;13424;48.424;11.258;2023-12-04T06:55:23;95400.19;;;-6.42;64.40
25526;BME280;13424;48.424;11.258;2023-12-04T06:57:49;95395.53;;;-6.29;64.65
25526;BME280;13424;48.424;11.258;2023-12-04T07:00:16;95383.50;;;-6.40;64.64
25526;BME280;13424;48.424;11.258;2023-12-04T07:02:42;95388.28;;;-6.35;64.46
25526;BME280;13424;48.424;11.258;2023-12-04T07:05:08;95392.47;;;-6.81;65.82
25526;BME280;13424;48.424;11.258;2023-12-04T07:07:34;95391.63;;;-6.06;65.27
25526;BME280;13424;48.424;11.258;2023-12-04T07:10:00;95388.91;;;-6.14;64.61
25526;BME280;13424;48.424;11.258;2023-12-04T07:12:26;95375.09;;;-6.52;62.72
25526;BME280;13424;48.424;11.258;2023-12-04T07:14:52;95375.69;;;-7.06;62.15
25526;BME280;13424;48.424;11.258;2023-12-04T07:17:18;95370.41;;;-6.48;62.73
25526;BME280;13424;48.424;11.258;2023-12-04T07:19:46;95379.66;;;-6.26;63.03
25526;BME280;13424;48.424;11.258;2023-12-04T07:22:12;95368.94;;;-6.51;63.04
25526;BME280;13424;48.424;11.258;2023-12-04T07:24:38;95363.47;;;-6.57;64.27
25526;BME280;13424;48.424;11.258;2023-12-04T07:27:04;95361.47;;;-6.63;65.17
25526;BME280;13424;48.424;11.258;2023-12-04T07:29:31;95360.00;;;-6.29;63.48
25526;BME280;13424;48.424;11.258;2023-12-04T07:31:57;95359.19;;;-6.02;63.87
25526;BME280;13424;48.424;11.258;2023-12-04T07:34:23;95353.88;;;-6.37;64.65
25526;BME280;13424;48.424;11.258;2023-12-04T07:36:49;95351.53;;;-6.31;63.92
25526;BME280;13424;48.424;11.258;2023-12-04T07:39:15;95347.22;;;-6.50;65.39
25526;BME280;13424;48.424;11.258;2023-12-04T07:41:41;95350.22;;;-5.90;64.44
25526;BME280;13424;48.424;11.258;2023-12-04T07:44:08;95350.63;;;-5.84;63.61
25526;BME280;13424;48.424;11.258;2023-12-04T07:46:34;95352.50;;;-6.04;62.82
25526;BME280;13424;48.424;11.258;2023-12-04T07:49:00;95345.53;;;-5.86;63.60
25526;BME280;13424;48.424;11.258;2023-12-04T07:51:26;95350.72;;;-6.31;62.82
25526;BME280;13424;48.424;11.258;2023-12-04T07:53:52;95363.00;;;-6.33;63.11
25526;BME280;13424;48.424;11.258;2023-12-04T07:56:18;95360.25;;;-5.77;62.54
25526;BME280;13424;48.424;11.258;2023-12-04T07:59:59;95371.66;;;-6.05;62.04
25526;BME280;13424;48.424;11.258;2023-12-04T08:02:25;95370.63;;;-6.22;61.49
25526;BME280;13424;48.424;11.258;2023-12-04T08:04:51;95370.06;;;-6.16;61.09
25526;BME280;13424;48.424;11.258;2023-12-04T08:07:17;95367.84;;;-6.11;60.71
25526;BME280;13424;48.424;11.258;2023-12-04T08:09:43;95373.84;;;-6.10;61.17
25526;BME280;13424;48.424;11.258;2023-12-04T08:12:09;95355.09;;;-6.41;62.19
25526;BME280;13424;48.424;11.258;2023-12-04T08:14:35;95354.50;;;-6.16;63.11
25526;BME280;13424;48.424;11.258;2023-12-04T08:17:01;95350.44;;;-5.38;61.88
25526;BME280;13424;48.424;11.258;2023-12-04T08:19:27;95351.94;;;-5.17;62.38
25526;BME280;13424;48.424;11.258;2023-12-04T08:21:53;95349.59;;;-5.28;61.50
25526;BME280;13424;48.424;11.258;2023-12-04T08:24:19;95339.88;;;-6.64;60.41
25526;BME280;13424;48.424;11.258;2023-12-04T08:26:46;95344.56;;;-6.40;61.95
25526;BME280;13424;48.424;11.258;2023-12-04T08:29:12;95358.06;;;-6.27;61.87
25526;BME280;13424;48.424;11.258;2023-12-04T08:31:38;95344.78;;;-6.14;60.54
25526;BME280;13424;48.424;11.258;2023-12-04T08:34:36;95348.94;;;-6.03;60.61
25526;BME280;13424;48.424;11.258;2023-12-04T08:37:02;95347.41;;;-5.78;60.90
25526;BME280;13424;48.424;11.258;2023-12-04T08:39:28;95348.38;;;-5.16;60.25
25526;BME280;13424;48.424;11.258;2023-12-04T08:41:55;95347.59;;;-4.91;59.56
25526;BME280;13424;48.424;11.258;2023-12-04T08:44:21;95354.63;;;-5.09;60.46
25526;BME280;13424;48.424;11.258;2023-12-04T08:46:47;95352.22;;;-4.85;59.14
25526;BME280;13424;48.424;11.258;2023-12-04T08:49:13;95359.09;;;-5.19;60.43
25526;BME280;13424;48.424;11.258;2023-12-04T08:51:39;95352.75;;;-4.55;60.08
25526;BME280;13424;48.424;11.258;2023-12-04T08:58:08;95358.72;;;-4.37;59.15
25526;BME280;13424;48.424;11.258;2023-12-04T09:00:34;95358.53;;;-4.43;59.75
25526;BME280;13424;48.424;11.258;2023-12-04T09:03:04;95350.59;;;-3.66;59.04
25526;BME280;13424;48.424;11.258;2023-12-04T09:05:30;95349.84;;;-4.26;60.41
25526;BME280;13424;48.424;11.258;2023-12-04T09:07:56;95338.31;;;-3.81;59.34
25526;BME280;13424;48.424;11.258;2023-12-04T09:10:22;95329.31;;;-3.95;60.40
25526;BME280;13424;48.424;11.258;2023-12-04T09:12:48;95341.25;;;-3.84;60.61
25526;BME280;13424;48.424;11.258;2023-12-04T09:15:14;95350.47;;;-3.56;60.47
25526;BME280;13424;48.424;11.258;2023-12-04T09:17:40;95338.53;;;-3.67;59.13
25526;BME280;13424;48.424;11.258;2023-12-04T09:23:57;95350.94;;;-3.69;57.27
25526;BME280;13424;48.424;11.258;2023-12-04T09:26:23;95341.59;;;-4.13;57.43
25526;BME280;13424;48.424;11.258;2023-12-04T09:28:49;95340.81;;;-4.40;57.77
25526;BME280;13424;48.424;11.258;2023-12-04T09:31:15;95339.38;;;-4.60;59.32
25526;BME280;13424;48.424;11.258;2023-12-04T09:33:41;95337.81;;;-4.19;59.11
25526;BME280;13424;48.424;11.258;2023-12-04T09:36:08;95330.50;;;-4.24;59.62
25526;BME280;13424;48.424;11.258;2023-12-04T09:38:34;95323.19;;;-3.78;59.49
25526;BME280;13424;48.424;11.258;2023-12-04T09:41:02;95320.28;;;-3.75;59.27
25526;BME280;13424;48.424;11.258;2023-12-04T09:43:32;95317.28;;;-3.29;58.51
25526;BME280;13424;48.424;11.258;2023-12-04T09:45:59;95317.44;;;-3.39;58.79
25526;BME280;13424;48.424;11.258;2023-12-04T09:48:27;95313.38;;;-3.01;58.15
25526;BME280;13424;48.424;11.258;2023-12-04T09:54:51;95317.75;;;-3.34;58.66
25526;BME280;13424;48.424;11.258;2023-12-04T09:57:17;95320.56;;;-2.95;58.42
25526;BME280;13424;48.424;11.258;2023-12-04T09:59:44;95310.28;;;-2.64;58.91
25526;BME280;13424;48.424;11.258;2023-12-04T10:02:11;95318.69;;;-2.29;58.73
25526;BME280;13424;48.424;11.258;2023-12-04T10:04:37;95310.66;;;-2.11;58.19
25526;BME280;13424;48.424;11.258;2023-12-04T10:07:04;95313.03;;;-1.93;58.12
25526;BME280;13424;48.424;11.258;2023-12-04T10:09:30;95313.22;;;-1.56;57.43
25526;BME280;13424;48.424;11.258;2023-12-04T10:11:56;95312.22;;;-1.55;57.99
25526;BME280;13424;48.424;11.258;2023-12-04T10:14:23;95296.53;;;-1.55;57.82
25526;BME280;13424;48.424;11.258;2023-12-04T10:16:51;95285.75;;;-1.91;58.71
25526;BME280;13424;48.424;11.258;2023-12-04T10:19:29;95281.13;;;-2.20;60.64
25526;BME280;13424;48.424;11.258;2023-12-04T10:21:58;95275.56;;;-2.17;60.86
25526;BME280;13424;48.424;11.258;2023-12-04T10:24:40;95267.22;;;-2.12;60.20
25526;BME280;13424;48.424;11.258;2023-12-04T10:27:09;95248.22;;;-2.06;60.26
25526;BME280;13424;48.424;11.258;2023-12-04T10:29:55;95240.06;;;-2.50;60.87
25526;BME280;13424;48.424;11.258;2023-12-04T10:32:22;95225.78;;;-2.87;61.43
25526;BME280;13424;48.424;11.258;2023-12-04T10:34:49;95214.91;;;-3.15;62.60
25526;BME280;13424;48.424;11.258;2023-12-04T10:38:23;95203.94;;;-2.94;63.18
25526;BME280;13424;48.424;11.258;2023-12-04T10:40:50;95201.09;;;-2.60;62.84
25526;BME280;13424;48.424;11.258;2023-12-04T10:43:17;95199.38;;;-2.84;63.68
25526;BME280;13424;48.424;11.258;2023-12-04T10:45:46;95200.66;;;-2.80;63.85
25526;BME280;13424;48.424;11.258;2023-12-04T10:48:16;95196.66;;;-2.12;63.02
25526;BME280;13424;48.424;11.258;2023-12-04T10:50:48;95201.63;;;-1.94;61.76
25526;BME280;13424;48.424;11.258;2023-12-04T10:53:16;95210.09;;;-1.92;61.93
25526;BME280;13424;48.424;11.258;2023-12-04T10:55:44;95205.22;;;-1.95;61.71
25526;BME280;13424;48.424;11.258;2023-12-04T10:58:15;95211.50;;;-1.82;60.70
25526;BME280;13424;48.424;11.258;2023-12-04T11:00:48;95214.81;;;-1.57;60.57
25526;BME280;13424;48.424;11.258;2023-12-04T11:03:25;95205.63;;;-2.15;61.63
25526;BME280;13424;48.424;11.258;2023-12-04T11:06:01;95198.16;;;-1.64;60.52
25526;BME280;13424;48.424;11.258;2023-12-04T11:08:33;95185.59;;;-1.91;60.98
25526;BME280;13424;48.424;11.258;2023-12-04T11:11:06;95182.56;;;-2.42;62.27
25526;BME280;13424;48.424;11.258;2023-12-04T11:13:42;95190.06;;;-1.77;61.63
25526;BME280;13424;48.424;11.258;2023-12-04T11:16:43;95183.81;;;-1.68;61.02
25526;BME280;13424;48.424;11.258;2023-12-04T11:19:35;95190.06;;;-1.77;61.57
25526;BME280;13424;48.424;11.258;2023-12-04T11:22:04;95183.88;;;-1.53;61.10
25526;BME280;13424;48.424;11.258;2023-12-04T11:24:34;95175.75;;;-1.81;61.73
25526;BME280;13424;48.424;11.258;2023-12-04T11:27:01;95176.56;;;-1.81;61.34
25526;BME280;13424;48.424;11.258;2023-12-04T11:29:29;95173.72;;;-1.10;60.71
25526;BME280;13424;48.424;11.258;2023-12-04T11:31:56;95172.94;;;-0.81;59.66
25526;BME280;13424;48.424;11.258;2023-12-04T11:34:22;95164.41;;;-1.13;60.12
25526;BME280;13424;48.424;11.258;2023-12-04T11:36:48;95171.72;;;-1.08;60.17
25526;BME280;13424;48.424;11.258;2023-12-04T11:39:14;95169.06;;;-1.23;59.85
25526;BME280;13424;48.424;11.258;2023-12-04T11:41:43;95177.47;;;-1.13;59.98
25526;BME280;13424;48.424;11.258;2023-12-04T11:44:13;95164.63;;;-1.60;60.94
25526;BME280;13424;48.424;11.258;2023-12-04T11:47:04;95171.47;;;-1.36;60.06
25526;BME280;13424;48.424;11.258;2023-12-04T11:49:32;95179.00;;;-1.79;61.44
25526;BME280;13424;48.424;11.258;2023-12-04T11:52:00;95188.59;;;-1.49;60.84
25526;BME280;13424;48.424;11.258;2023-12-04T11:54:28;95180.00;;;-1.43;60.97
25526;BME280;13424;48.424;11.258;2023-12-04T11:57:20;95180.25;;;-1.29;61.57
25526;BME280;13424;48.424;11.258;2023-12-04T11:59:48;95175.44;;;-0.88;60.25
25526;BME280;13424;48.424;11.258;2023-12-04T12:02:15;95174.28;;;-0.86;59.90
25526;BME280;13424;48.424;11.258;2023-12-04T12:04:43;95166.94;;;-0.16;58.32
25526;BME280;13424;48.424;11.258;2023-12-04T12:07:11;95165.72;;;-0.50;58.57
25526;BME280;13424;48.424;11.258;2023-12-04T12:09:38;95164.78;;;-0.28;58.97
25526;BME280;13424;48.424;11.258;2023-12-04T12:12:05;95177.00;;;0.16;58.01
25526;BME280;13424;48.424;11.258;2023-12-04T12:14:31;95166.25;;;-0.69;59.01
25526;BME280;13424;48.424;11.258;2023-12-04T12:17:22;95166.25;;;-0.69;58.66
25526;BME280;13424;48.424;11.258;2023-12-04T12:19:48;95162.34;;;-1.41;59.93
25526;BME280;13424;48.424;11.258;2023-12-04T12:22:14;95161.34;;;-1.17;60.60
25526;BME280;13424;48.424;11.258;2023-12-04T12:24:40;95152.50;;;-1.16;59.76
25526;BME280;13424;48.424;11.258;2023-12-04T12:27:06;95142.63;;;-1.28;60.27
25526;BME280;13424;48.424;11.258;2023-12-04T12:29:32;95143.31;;;-0.82;58.96
25526;BME280;13424;48.424;11.258;2023-12-04T12:31:58;95119.94;;;-0.69;58.74
25526;BME280;13424;48.424;11.258;2023-12-04T12:34:24;95127.06;;;-0.92;59.73
25526;BME280;13424;48.424;11.258;2023-12-04T12:36:50;95130.50;;;-0.92;58.69
25526;BME280;13424;48.424;11.258;2023-12-04T12:39:16;95127.50;;;-2.33;61.61
25526;BME280;13424;48.424;11.258;2023-12-04T12:41:49;95133.59;;;-1.86;61.43
25526;BME280;13424;48.424;11.258;2023-12-04T12:44:16;95116.94;;;-1.10;60.17
25526;BME280;13424;48.424;11.258;2023-12-04T12:46:47;95113.50;;;-1.10;59.76
25526;BME280;13424;48.424;11.258;2023-12-04T12:49:20;95107.53;;;-0.60;59.83
25526;BME280;13424;48.424;11.258;2023-12-04T12:51:46;95100.66;;;-0.32;57.80
25526;BME280;13424;48.424;11.258;2023-12-04T12:54:13;95099.94;;;0.17;57.46
25526;BME280;13424;48.424;11.258;2023-12-04T12:56:40;95108.22;;;-0.37;58.72
25526;BME280;13424;48.424;11.258;2023-12-04T12:59:06;95107.25;;;0.43;56.90
25526;BME280;13424;48.424;11.258;2023-12-04T13:01:33;95092.94;;;0.03;58.60
25526;BME280;13424;48.424;11.258;2023-12-04T13:04:00;95085.44;;;0.21;58.32
25526;BME280;13424;48.424;11.258;2023-12-04T13:06:26;95094.69;;;0.17;58.33
25526;BME280;13424;48.424;11.258;2023-12-04T13:08:52;95094.25;;;0.14;57.62
25526;BME280;13424;48.424;11.258;2023-12-04T13:11:18;95103.44;;;0.74;57.24
25526;BME280;13424;48.424;11.258;2023-12-04T13:13:44;95107.84;;;0.45;57.63
25526;BME280;13424;48.424;11.258;2023-12-04T13:16:10;95096.19;;;0.05;58.29
25526;BME280;13424;48.424;11.258;2023-12-04T13:18:36;95094.41;;;-0.09;58.26
25526;BME280;13424;48.424;11.258;2023-12-04T13:21:04;95096.16;;;-1.26;60.53
25526;BME280;13424;48.424;11.258;2023-12-04T13:23:30;95069.09;;;-1.33;60.79
25526;BME280;13424;48.424;11.258;2023-12-04T13:25:56;95069.00;;;-2.01;62.13
25526;BME280;13424;48.424;11.258;2023-12-04T13:28:24;95061.72;;;-2.13;62.32
25526;BME280;13424;48.424;11.258;2023-12-04T13:30:50;95062.47;;;-2.82;64.78
25526;BME280;13424;48.424;11.258;2023-12-04T13:33:16;95055.47;;;-2.27;63.95
25526;BME280;13424;48.424;11.258;2023-12-04T13:35:42;95055.22;;;-1.94;62.65